Charlestown, RI

8:09 AM EDT on September 02, 2015 (GMT -0400)
Pasquiset Pond | | Change Station
CLOSE
Current Station
Personal Weather Station
Location: Charlestown, RI
Elevation: 130 ft
Nearby Weather Stations

Elev 130 ft 41.42 °N, 71.63 °W | Updated 9 minutes ago

Mostly Cloudy
Mostly Cloudy
65.5 °F
Feels Like 65.5 °F
N
0.0
Wind Variable Wind from SSE
Gusts 0.0 mph

Today
High -- | Low -- °F
--% Chance of Precip.
Yesterday
High -- | Low -- °F
Precip. -- in
6:13 AM 7:18 PM
Waning Gibbous, 81% visible
Pressure 30.04 in
Visibility 4.0 miles
Clouds Mostly Cloudy 500 ft
Dew Point 65 °F
Humidity 98%
Rainfall 0.00 in
Snow Depth Not available.
UV 1 out of 12
Pollen 8.70 out of 12
Air Quality Not available.
Flu Activity Not available.
SPECI KWST 021202Z AUTO 00000KT 4SM BR BKN005 19/18 A3004 RMK AO2 T01940183
Pressure 30.04 in
Visibility 4.0 miles
Clouds Mostly Cloudy 500 ft
Dew Point 65 °F
Humidity 98%
Rainfall 0.00 in
Snow Depth Not available.
UV 1 out of 12
Pollen 8.70 out of 12
Air Quality Not available.
Flu Activity Not available.
SPECI KWST 021202Z AUTO 00000KT 4SM BR BKN005 19/18 A3004 RMK AO2 T01940183

10-Day Weather Forecast

×

Almanac

Astronomy

Sep. 02, 2015 Rise Set
Actual Time
Civil Twilight
Nautical Twilight
Astronomical Twilight
Moon
Length of Visible Light
Length of Day
Tomorrow will be .
, % of the Moon is Illuminated

Today's Extremes

State Highs State Lows

Community

WunderPhotos

Upload Photos

1,851,736 photos uploaded!

WunderBlogs® & News

Nearby

Air Quality

  Air Quality AQ Index Pollutant
Not available.

Snow Depth

Station Depth Elevation

Earthquake Activity

City Distance Mag. Time & Date
Minimum magnitude displayed is 2.5.

Coastal Water Temperatures

Place Temperature

Stations

Nearby Weather Stations

Station Location Temp. Windchill Dew Point Humidity Wind Precip. Elev Updated Type